Time;durP1;ratioP1;P1;durP2;ratioP2;P2;SDS_P1;SDS_P2;PMS_P1;PMS_P2;Temp;Humidity;BMP_temperature;BMP_pressure;BME280_temperature;BME280_humidity;BME280_pressure;Samples;Min_cycle;Max_cycle;Signal;HPM_P1;HPM_P2
2023/03/29 00:01:55;;;;;;;;;;;7.50;72.00;;;-151.14;100.00;62537.16;4995524;28;19922;-84
2023/03/29 00:04:26;;;;;;;;;;;7.50;71.90;;;-151.14;100.00;62537.16;4995219;28;19921;-83
2023/03/29 00:06:54;;;;;;;;;;;7.50;71.70;;;-151.14;100.00;62537.16;4995493;28;19922;-83
2023/03/29 00:09:22;;;;;;;;;;;7.50;71.80;;;-151.14;100.00;62537.16;4995336;28;19921;-84
2023/03/29 00:11:50;;;;;;;;;;;7.50;71.80;;;-151.14;100.00;62537.16;5011812;28;19921;-83
2023/03/29 00:14:18;;;;;;;;;;;7.50;72.00;;;-151.14;100.00;62537.16;5027877;28;19921;-84
2023/03/29 00:16:48;;;;;;;;;;;7.50;72.00;;;-151.14;100.00;62537.16;4995180;28;19943;-84
2023/03/29 00:19:16;;;;;;;;;;;7.40;71.70;;;-151.14;100.00;62537.16;4995127;28;19922;-84
2023/03/29 00:21:44;;;;;;;;;;;7.40;71.80;;;-151.14;100.00;62537.16;4995361;28;19928;-84
2023/03/29 00:24:12;;;;;;;;;;;7.40;71.80;;;-151.14;100.00;62537.16;4994916;28;19922;-84
2023/03/29 00:26:40;;;;;;;;;;;7.40;71.90;;;-151.14;100.00;62537.16;5010390;28;20231;-84
2023/03/29 00:29:08;;;;;;;;;;;7.40;71.80;;;-151.14;100.00;62537.16;5027675;28;20266;-83
2023/03/29 00:31:36;;;;;;;;;;;7.40;71.80;;;-151.14;100.00;62537.16;5011418;28;19922;-84
2023/03/29 00:34:06;;;;;;;;;;;7.40;71.90;;;-151.14;100.00;62537.16;4994915;28;19922;-84
2023/03/29 00:36:34;;;;;;;;;;;7.40;71.70;;;-151.14;100.00;62537.16;4995178;28;19921;-84
2023/03/29 00:39:02;;;;;;;;;;;7.40;72.00;;;-151.14;100.00;62537.16;4994884;28;19921;-83
2023/03/29 00:41:30;;;;;;;;;;;7.40;72.00;;;-151.14;100.00;62537.16;4994918;28;19922;-83
2023/03/29 00:43:59;;;;;;;;;;;7.40;72.10;;;-151.14;100.00;62537.16;4994697;28;19928;-84
2023/03/29 00:46:28;;;;;;;;;;;7.40;72.00;;;-151.14;100.00;62537.16;4994835;28;19921;-83
2023/03/29 00:48:58;;;;;;;;;;;7.40;72.10;;;-151.14;100.00;62537.16;4994646;28;19928;-84
2023/03/29 00:51:28;;;;;;;;;;;7.40;71.70;;;-151.14;100.00;62537.16;4994635;28;19928;-83
2023/03/29 00:53:57;;;;;;;;;;;7.40;72.00;;;-151.14;100.00;62537.16;4994535;28;19936;-83
2023/03/29 00:56:28;;;;;;;;;;;7.40;71.90;;;-151.14;100.00;62537.16;4988851;28;19922;-83
2023/03/29 00:58:58;;;;;;;;;;;7.40;71.70;;;-151.14;100.00;62537.16;4991521;28;19944;-84
2023/03/29 01:01:32;;;;;;;;;;;7.40;71.90;;;-151.14;100.00;62537.16;4973943;28;19922;-83
2023/03/29 01:04:02;;;;;;;;;;;7.40;71.80;;;-151.14;100.00;62537.16;4991194;28;19929;-83
2023/03/29 01:06:33;;;;;;;;;;;7.40;72.00;;;-151.14;100.00;62537.16;4990904;28;19970;-84
2023/03/29 01:09:02;;;;;;;;;;;7.40;71.90;;;-151.14;100.00;62537.16;4974514;28;19928;-84
2023/03/29 01:11:34;;;;;;;;;;;7.30;72.00;;;-151.14;100.00;62537.16;4991422;28;19921;-83
2023/03/29 01:14:03;;;;;;;;;;;7.40;71.90;;;-151.14;100.00;62537.16;4974869;28;19929;-84
2023/03/29 01:16:32;;;;;;;;;;;7.30;71.80;;;-151.14;100.00;62537.16;4991233;28;20205;-84
2023/03/29 01:19:01;;;;;;;;;;;7.30;71.90;;;-151.14;100.00;62537.16;4991130;28;19928;-84
2023/03/29 01:21:31;;;;;;;;;;;7.30;71.80;;;-151.14;100.00;62537.16;4975173;28;19928;-83
2023/03/29 01:24:31;;;;;;;;;;;7.30;71.80;;;-151.14;100.00;62537.16;4990825;28;19929;-84
2023/03/29 01:27:01;;;;;;;;;;;7.30;72.00;;;-151.14;100.00;62537.16;4991043;28;19961;-84
2023/03/29 01:29:32;;;;;;;;;;;7.30;72.00;;;-151.14;100.00;62537.16;4991000;28;20209;-84
2023/03/29 01:32:01;;;;;;;;;;;7.30;71.90;;;-151.14;100.00;62537.16;4992121;28;20235;-84
2023/03/29 01:34:33;;;;;;;;;;;7.30;72.00;;;-151.14;100.00;62537.16;4974705;28;19922;-83
2023/03/29 01:37:03;;;;;;;;;;;7.30;71.90;;;-151.14;100.00;62537.16;5008651;28;20094;-84
2023/03/29 01:39:33;;;;;;;;;;;7.30;72.00;;;-151.14;100.00;62537.16;4977951;28;19928;-84
2023/03/29 01:42:08;;;;;;;;;;;7.30;71.90;;;-151.14;100.00;62537.16;5010900;28;19928;-84
2023/03/29 01:44:39;;;;;;;;;;;7.30;71.70;;;-151.14;100.00;62537.16;4978031;28;20114;-84
2023/03/29 01:47:10;;;;;;;;;;;7.30;71.90;;;-151.14;100.00;62537.16;4994240;28;19929;-84
2023/03/29 01:49:41;;;;;;;;;;;7.30;71.70;;;-151.14;100.00;62537.16;4994282;28;19922;-83
2023/03/29 01:52:12;;;;;;;;;;;7.30;71.80;;;-151.14;100.00;62537.16;4978098;28;19928;-84
2023/03/29 01:54:41;;;;;;;;;;;7.30;71.90;;;-151.14;100.00;62537.16;4977995;28;19928;-84
2023/03/29 01:57:09;;;;;;;;;;;7.30;71.90;;;-151.14;100.00;62537.16;4994043;28;19928;-84
2023/03/29 01:59:40;;;;;;;;;;;7.30;71.80;;;-151.14;100.00;62537.16;4994009;28;19922;-84
2023/03/29 02:02:10;;;;;;;;;;;7.30;71.90;;;-151.14;100.00;62537.16;5010361;28;20121;-84
2023/03/29 02:04:39;;;;;;;;;;;7.30;72.00;;;-151.14;100.00;62537.16;4977707;28;20235;-84
2023/03/29 02:07:08;;;;;;;;;;;7.30;71.90;;;-151.14;100.00;62537.16;4993969;28;19928;-83
2023/03/29 02:09:37;;;;;;;;;;;7.30;72.10;;;-151.14;100.00;62537.16;4993873;28;19922;-84
2023/03/29 02:12:05;;;;;;;;;;;7.30;71.90;;;-151.14;100.00;62537.16;4993938;28;19922;-84
2023/03/29 02:14:34;;;;;;;;;;;7.30;71.90;;;-151.14;100.00;62537.16;4993861;28;19921;-84
2023/03/29 02:17:17;;;;;;;;;;;7.30;71.80;;;-151.14;100.00;62537.16;4977698;28;19922;-84
2023/03/29 02:19:48;;;;;;;;;;;7.30;71.90;;;-151.14;100.00;62537.16;4977595;28;19981;-84
2023/03/29 02:22:18;;;;;;;;;;;7.30;72.00;;;-151.14;100.00;62537.16;4998160;28;19927;-84
2023/03/29 02:24:47;;;;;;;;;;;7.20;71.90;;;-151.14;100.00;62537.16;5013012;28;19927;-83
2023/03/29 02:27:15;;;;;;;;;;;7.20;71.80;;;-151.14;100.00;62537.16;4997032;28;19944;-84
2023/03/29 02:29:45;;;;;;;;;;;7.20;72.00;;;-151.14;100.00;62537.16;5013067;28;19922;-84
2023/03/29 02:32:16;;;;;;;;;;;7.20;72.00;;;-151.14;100.00;62537.16;4996961;28;19928;-83
2023/03/29 02:34:46;;;;;;;;;;;7.20;72.00;;;-151.14;100.00;62537.16;4996777;28;20227;-84
2023/03/29 02:37:17;;;;;;;;;;;7.20;71.80;;;-151.14;100.00;62537.16;4994652;28;19927;-83
2023/03/29 02:39:47;;;;;;;;;;;7.20;71.70;;;-151.14;100.00;62537.16;4993478;28;19921;-84
2023/03/29 02:42:16;;;;;;;;;;;7.20;71.90;;;-151.14;100.00;62537.16;5011151;28;19921;-83
2023/03/29 02:44:45;;;;;;;;;;;7.20;71.90;;;-151.14;100.00;62537.16;5012979;28;19928;-84
2023/03/29 02:47:16;;;;;;;;;;;7.20;71.80;;;-151.14;100.00;62537.16;5012929;28;19922;-83
2023/03/29 02:49:44;;;;;;;;;;;7.20;71.90;;;-151.14;100.00;62537.16;4995779;28;19921;-83
2023/03/29 02:52:14;;;;;;;;;;;7.20;71.90;;;-151.14;100.00;62537.16;4996618;28;19928;-84
2023/03/29 02:54:44;;;;;;;;;;;7.20;71.70;;;-151.14;100.00;62537.16;4995894;28;19921;-83
2023/03/29 02:57:12;;;;;;;;;;;7.20;71.70;;;-151.14;100.00;62537.16;4995500;28;20217;-84
2023/03/29 02:59:42;;;;;;;;;;;7.20;71.60;;;-151.14;100.00;62537.16;5028859;28;19921;-83
2023/03/29 03:02:12;;;;;;;;;;;7.20;71.90;;;-151.14;100.00;62537.16;4996580;28;19927;-83
2023/03/29 03:04:43;;;;;;;;;;;7.20;71.70;;;-151.14;100.00;62537.16;4996248;28;20117;-84
2023/03/29 03:07:12;;;;;;;;;;;7.20;71.90;;;-151.14;100.00;62537.16;5013723;28;19926;-83
2023/03/29 03:09:41;;;;;;;;;;;7.20;71.80;;;-151.14;100.00;62537.16;4996241;28;19928;-84
2023/03/29 03:12:10;;;;;;;;;;;7.20;72.00;;;-151.14;100.00;62537.16;4996384;28;19922;-83
2023/03/29 03:14:38;;;;;;;;;;;7.10;71.90;;;-151.14;100.00;62537.16;4996165;28;19921;-83
2023/03/29 03:17:06;;;;;;;;;;;7.20;71.80;;;-151.14;100.00;62537.16;4996154;28;19928;-84
2023/03/29 03:19:35;;;;;;;;;;;7.10;72.10;;;-151.14;100.00;62537.16;4996120;28;19921;-84
2023/03/29 03:22:04;;;;;;;;;;;7.10;71.90;;;-151.14;100.00;62537.16;4996094;28;19927;-84
2023/03/29 03:24:33;;;;;;;;;;;7.10;71.80;;;-151.14;100.00;62537.16;4995945;28;19921;-84
2023/03/29 03:27:01;;;;;;;;;;;7.10;72.00;;;-151.14;100.00;62537.16;4995843;28;19921;-84
2023/03/29 03:29:29;;;;;;;;;;;7.10;71.90;;;-151.14;100.00;62537.16;4995989;28;19922;-83
2023/03/29 03:32:16;;;;;;;;;;;7.10;71.80;;;-151.14;100.00;62537.16;5028675;28;19922;-84
2023/03/29 03:35:04;;;;;;;;;;;7.10;71.70;;;-151.14;100.00;62537.16;4995838;28;19944;-84
2023/03/29 03:37:33;;;;;;;;;;;7.10;71.80;;;-151.14;100.00;62537.16;4995936;28;19921;-84
2023/03/29 03:40:03;;;;;;;;;;;7.10;71.70;;;-151.14;100.00;62537.16;4995889;28;19921;-84
2023/03/29 03:42:31;;;;;;;;;;;7.10;71.80;;;-151.14;100.00;62537.16;4995760;28;19943;-84
2023/03/29 03:44:59;;;;;;;;;;;7.10;71.70;;;-151.14;100.00;62537.16;5011943;28;19922;-83
2023/03/29 03:47:53;;;;;;;;;;;7.10;71.60;;;-151.14;100.00;62537.16;4995721;28;20231;-84
2023/03/29 03:50:33;;;;;;;;;;;7.10;71.70;;;-151.14;100.00;62537.16;5011905;28;19921;-84
2023/03/29 03:53:03;;;;;;;;;;;7.10;71.70;;;-151.14;100.00;62537.16;5011921;28;19922;-84
2023/03/29 03:55:51;;;;;;;;;;;7.10;71.70;;;-151.14;100.00;62537.16;4972834;28;19922;-84
2023/03/29 03:58:23;;;;;;;;;;;7.10;71.90;;;-151.14;100.00;62537.16;4972904;28;19922;-84
2023/03/29 04:00:52;;;;;;;;;;;7.10;71.60;;;-151.14;100.00;62537.16;4956968;28;19922;-83
2023/03/29 04:03:32;;;;;;;;;;;7.10;71.70;;;-151.14;100.00;62537.16;4956868;28;20237;-83
2023/03/29 04:06:00;;;;;;;;;;;7.10;71.70;;;-151.14;100.00;62537.16;4972874;28;19922;-83
2023/03/29 04:08:34;;;;;;;;;;;7.10;71.60;;;-151.14;100.00;62537.16;4956543;28;19922;-83
2023/03/29 04:11:19;;;;;;;;;;;7.10;71.80;;;-151.14;100.00;62537.16;4956765;28;19922;-83
2023/03/29 04:13:47;;;;;;;;;;;7.10;71.80;;;-151.14;100.00;62537.16;4956515;28;19922;-84
2023/03/29 04:16:27;;;;;;;;;;;7.00;71.70;;;-151.14;100.00;62537.16;4972721;28;19969;-84
2023/03/29 04:18:55;;;;;;;;;;;7.00;71.60;;;-151.14;100.00;62537.16;4972457;28;19922;-83
2023/03/29 04:21:24;;;;;;;;;;;7.00;71.20;;;-151.14;100.00;62537.16;4972711;28;19922;-83
2023/03/29 04:23:53;;;;;;;;;;;7.00;71.50;;;-151.14;100.00;62537.16;4972580;28;19923;-83
2023/03/29 04:26:21;;;;;;;;;;;7.00;71.50;;;-151.14;100.00;62537.16;4956200;28;19922;-83
2023/03/29 04:28:53;;;;;;;;;;;7.00;71.50;;;-151.14;100.00;62537.16;4956392;28;19929;-84
2023/03/29 04:31:41;;;;;;;;;;;7.00;71.50;;;-151.14;100.00;62537.16;4972214;28;19922;-84
2023/03/29 04:34:27;;;;;;;;;;;7.00;71.60;;;-151.14;100.00;62537.16;4988533;28;19922;-83
2023/03/29 04:36:57;;;;;;;;;;;7.00;71.80;;;-151.14;100.00;62537.16;4956446;28;19923;-84
2023/03/29 04:39:32;;;;;;;;;;;7.00;71.70;;;-151.14;100.00;62537.16;4956065;28;19922;-83
2023/03/29 04:42:01;;;;;;;;;;;7.00;71.50;;;-151.14;100.00;62537.16;4956493;28;19922;-83
2023/03/29 04:44:32;;;;;;;;;;;7.00;71.50;;;-151.14;100.00;62537.16;4972244;28;19922;-84
2023/03/29 04:47:00;;;;;;;;;;;7.00;71.40;;;-151.14;100.00;62537.16;4972043;28;19922;-84
2023/03/29 04:49:43;;;;;;;;;;;7.00;71.50;;;-151.14;100.00;62537.16;4988496;28;19922;-84
2023/03/29 04:52:20;;;;;;;;;;;7.00;71.60;;;-151.14;100.00;62537.16;4972246;28;19930;-84
2023/03/29 04:54:50;;;;;;;;;;;7.00;71.50;;;-151.14;100.00;62537.16;4971892;28;19922;-84
2023/03/29 04:57:22;;;;;;;;;;;6.90;71.20;;;-151.14;100.00;62537.16;4956025;28;19936;-85
2023/03/29 04:59:56;;;;;;;;;;;7.00;71.50;;;-151.14;100.00;62537.16;4983643;28;19928;-84
2023/03/29 05:02:43;;;;;;;;;;;7.00;71.50;;;-151.14;100.00;62537.16;5011463;28;19922;-84
2023/03/29 05:05:12;;;;;;;;;;;7.00;71.60;;;-151.14;100.00;62537.16;4990413;28;19922;-85
2023/03/29 05:07:41;;;;;;;;;;;7.00;71.40;;;-151.14;100.00;62537.16;4991116;28;19921;-84
2023/03/29 05:10:13;;;;;;;;;;;6.90;71.20;;;-151.14;100.00;62537.16;4991154;28;19922;-84
2023/03/29 05:12:42;;;;;;;;;;;6.90;71.60;;;-151.14;100.00;62537.16;4990881;28;19928;-85
2023/03/29 05:15:11;;;;;;;;;;;7.00;71.20;;;-151.14;100.00;62537.16;4991111;28;19930;-85
2023/03/29 05:17:39;;;;;;;;;;;7.00;71.50;;;-151.14;100.00;62537.16;4991165;28;19922;-84
2023/03/29 05:20:12;;;;;;;;;;;7.00;71.60;;;-151.14;100.00;62537.16;4991188;28;20098;-84
2023/03/29 05:22:41;;;;;;;;;;;6.90;71.30;;;-151.14;100.00;62537.16;4991040;28;19921;-84
2023/03/29 05:25:15;;;;;;;;;;;7.00;71.40;;;-151.14;100.00;62537.16;4990925;28;19922;-85
2023/03/29 05:27:44;;;;;;;;;;;6.90;71.40;;;-151.14;100.00;62537.16;4990931;28;19929;-85
2023/03/29 05:30:14;;;;;;;;;;;6.90;71.30;;;-151.14;100.00;62537.16;4991170;28;19944;-84
2023/03/29 05:32:58;;;;;;;;;;;6.90;71.30;;;-151.14;100.00;62537.16;4991102;28;19922;-84
2023/03/29 05:35:27;;;;;;;;;;;6.90;71.50;;;-151.14;100.00;62537.16;4987385;28;19923;-85
2023/03/29 05:37:57;;;;;;;;;;;6.90;71.40;;;-151.14;100.00;62537.16;4971324;28;19926;-84
2023/03/29 05:40:26;;;;;;;;;;;6.90;71.50;;;-151.14;100.00;62537.16;4971487;28;19922;-84
2023/03/29 05:43:17;;;;;;;;;;;6.90;71.40;;;-151.14;100.00;62537.16;4973637;28;20236;-85
2023/03/29 05:45:46;;;;;;;;;;;6.90;71.40;;;-151.14;100.00;62537.16;4979931;28;19928;-84
2023/03/29 05:48:14;;;;;;;;;;;6.90;71.30;;;-151.14;100.00;62537.16;5010371;28;19922;-84
2023/03/29 05:50:47;;;;;;;;;;;6.90;71.40;;;-151.14;100.00;62537.16;4993971;28;19921;-85
2023/03/29 05:53:15;;;;;;;;;;;6.90;71.20;;;-151.14;100.00;62537.16;4993815;28;19921;-85
2023/03/29 05:55:46;;;;;;;;;;;6.90;71.00;;;-151.14;100.00;62537.16;4994220;28;19922;-84
2023/03/29 05:58:17;;;;;;;;;;;6.90;71.10;;;-151.14;100.00;62537.16;4993847;28;19921;-85
2023/03/29 06:00:48;;;;;;;;;;;6.90;70.90;;;-151.14;100.00;62537.16;4993864;28;19921;-84
2023/03/29 06:03:39;;;;;;;;;;;6.90;70.80;;;-151.14;100.00;62537.16;5011102;28;20210;-84
2023/03/29 06:06:08;;;;;;;;;;;7.00;70.80;;;-151.14;100.00;62537.16;4993749;28;20120;-85
2023/03/29 06:08:36;;;;;;;;;;;7.00;70.80;;;-151.14;100.00;62537.16;4993700;28;19921;-84
2023/03/29 06:11:25;;;;;;;;;;;7.00;71.10;;;-151.14;100.00;62537.16;4993964;28;20117;-84
2023/03/29 06:14:22;;;;;;;;;;;7.00;70.80;;;-151.14;100.00;62537.16;4993698;28;19922;-84
2023/03/29 06:16:55;;;;;;;;;;;6.90;70.80;;;-151.14;100.00;62537.16;5009929;28;19928;-84
2023/03/29 06:19:24;;;;;;;;;;;6.90;70.70;;;-151.14;100.00;62537.16;4993598;28;19940;-84
2023/03/29 06:21:53;;;;;;;;;;;7.00;70.70;;;-151.14;100.00;62537.16;4993749;28;19928;-85
2023/03/29 06:24:25;;;;;;;;;;;7.00;70.40;;;-151.14;100.00;62537.16;5011595;28;19944;-85
2023/03/29 06:27:02;;;;;;;;;;;7.00;70.30;;;-151.14;100.00;62537.16;4996911;28;19922;-84
2023/03/29 06:29:31;;;;;;;;;;;7.10;70.40;;;-151.14;100.00;62537.16;4996772;28;19928;-84
2023/03/29 06:31:59;;;;;;;;;;;7.10;70.10;;;-151.14;100.00;62537.16;5013280;28;19928;-84
2023/03/29 06:34:47;;;;;;;;;;;7.10;69.90;;;-151.14;100.00;62537.16;4996867;28;19921;-84
2023/03/29 06:37:37;;;;;;;;;;;7.10;69.70;;;-151.14;100.00;62537.16;5013022;28;20121;-85
2023/03/29 06:40:21;;;;;;;;;;;7.10;69.50;;;-151.14;100.00;62537.16;4996781;28;19921;-84
2023/03/29 06:42:56;;;;;;;;;;;7.10;69.70;;;-151.14;100.00;62537.16;4996652;28;19921;-85
2023/03/29 06:45:27;;;;;;;;;;;7.10;69.80;;;-151.14;100.00;62537.16;5029248;28;19921;-85
2023/03/29 06:47:56;;;;;;;;;;;7.10;69.50;;;-151.14;100.00;62537.16;5012834;28;20252;-84
2023/03/29 06:50:24;;;;;;;;;;;7.10;69.80;;;-151.14;100.00;62537.16;4996649;28;19921;-85
2023/03/29 06:53:14;;;;;;;;;;;7.10;70.00;;;-151.14;100.00;62537.16;4997173;28;19922;-84
2023/03/29 06:55:44;;;;;;;;;;;7.00;69.60;;;-151.14;100.00;62537.16;4977216;28;19922;-85
2023/03/29 06:58:34;;;;;;;;;;;7.10;69.70;;;-151.14;100.00;62537.16;4992627;28;19926;-85
2023/03/29 07:01:10;;;;;;;;;;;7.10;69.60;;;-151.14;100.00;62537.16;4977381;28;20232;-86
2023/03/29 07:03:51;;;;;;;;;;;7.10;70.30;;;-151.14;100.00;62537.16;4977062;28;19971;-85
2023/03/29 07:06:25;;;;;;;;;;;7.20;70.50;;;-151.14;100.00;62537.16;4976867;28;19922;-84
2023/03/29 07:08:58;;;;;;;;;;;7.30;70.70;;;-151.14;100.00;62537.16;4976654;28;19928;-85
2023/03/29 07:11:52;;;;;;;;;;;7.40;67.10;;;-151.14;100.00;62537.16;4993688;28;20197;-85
2023/03/29 07:14:27;;;;;;;;;;;7.40;65.50;;;-151.14;100.00;62537.16;4976767;28;19922;-85
2023/03/29 07:16:57;;;;;;;;;;;7.50;65.30;;;-151.14;100.00;62537.16;4993139;28;19921;-84
2023/03/29 07:19:31;;;;;;;;;;;7.60;64.70;;;-151.14;100.00;62537.16;4984688;28;19936;-84
2023/03/29 07:22:12;;;;;;;;;;;7.60;64.90;;;-151.14;100.00;62537.16;5000071;28;19934;-85
2023/03/29 07:24:58;;;;;;;;;;;7.70;64.90;;;-151.14;100.00;62537.16;4967473;28;19929;-85
2023/03/29 07:27:27;;;;;;;;;;;7.60;64.10;;;-151.14;100.00;62537.16;5002889;28;19940;-85
2023/03/29 07:29:57;;;;;;;;;;;7.70;63.80;;;-151.14;100.00;62537.16;4975695;28;19929;-85
2023/03/29 07:32:25;;;;;;;;;;;7.60;64.00;;;-151.14;100.00;62537.16;4975580;28;19928;-85
2023/03/29 07:35:03;;;;;;;;;;;7.50;63.70;;;-151.14;100.00;62537.16;4975263;28;19928;-84
2023/03/29 07:37:35;;;;;;;;;;;7.50;63.50;;;-151.14;100.00;62537.16;4975539;28;19922;-84
2023/03/29 07:40:07;;;;;;;;;;;7.30;63.20;;;-151.14;100.00;62537.16;4975521;28;19987;-84
2023/03/29 07:42:44;;;;;;;;;;;7.30;62.80;;;-151.14;100.00;62537.16;4991832;28;19928;-85
2023/03/29 07:45:19;;;;;;;;;;;7.20;62.40;;;-151.14;100.00;62537.16;4975256;28;19922;-85
2023/03/29 07:47:59;;;;;;;;;;;7.20;63.40;;;-151.14;100.00;62537.16;4938983;28;20128;-85
2023/03/29 07:50:33;;;;;;;;;;;7.10;63.20;;;-151.14;100.00;62537.16;4975568;28;19933;-84
2023/03/29 07:53:04;;;;;;;;;;;7.00;63.20;;;-151.14;100.00;62537.16;4975634;28;19921;-85
2023/03/29 07:55:33;;;;;;;;;;;7.00;63.60;;;-151.14;100.00;62537.16;4975363;28;19932;-84
2023/03/29 07:58:11;;;;;;;;;;;6.90;63.20;;;-151.14;100.00;62537.16;4975064;28;19922;-85
2023/03/29 08:00:42;;;;;;;;;;;6.90;62.90;;;-151.14;100.00;62537.16;4975285;28;19922;-84
2023/03/29 08:03:30;;;;;;;;;;;6.90;63.30;;;-151.14;100.00;62537.16;4992511;28;19936;-85
2023/03/29 08:06:01;;;;;;;;;;;6.90;63.80;;;-151.14;100.00;62537.16;4975040;28;19936;-85
2023/03/29 08:08:29;;;;;;;;;;;6.90;64.60;;;-151.14;100.00;62537.16;4991037;28;19929;-85
2023/03/29 08:11:07;;;;;;;;;;;6.90;65.70;;;-151.14;100.00;62537.16;4975212;28;19922;-84
2023/03/29 08:14:00;;;;;;;;;;;6.90;66.40;;;-151.14;100.00;62537.16;4991231;28;19922;-85
2023/03/29 08:16:51;;;;;;;;;;;6.90;66.70;;;-151.14;100.00;62537.16;4990977;28;19928;-84
2023/03/29 08:19:20;;;;;;;;;;;6.90;66.10;;;-151.14;100.00;62537.16;4974930;28;19922;-85
2023/03/29 08:22:04;;;;;;;;;;;6.90;66.00;;;-151.14;100.00;62537.16;4990153;28;20261;-84
2023/03/29 08:24:52;;;;;;;;;;;6.80;66.40;;;-151.14;100.00;62537.16;4988876;28;19928;-85
2023/03/29 08:27:23;;;;;;;;;;;6.90;66.40;;;-151.14;100.00;62537.16;4973341;28;19929;-86
2023/03/29 08:29:51;;;;;;;;;;;6.90;67.10;;;-151.14;100.00;62537.16;4973515;28;19928;-84
2023/03/29 08:32:20;;;;;;;;;;;6.90;67.10;;;-151.14;100.00;62537.16;4989316;28;19940;-85
2023/03/29 08:34:49;;;;;;;;;;;6.90;67.30;;;-151.14;100.00;62537.16;4972977;28;19940;-84
2023/03/29 08:37:28;;;;;;;;;;;6.90;67.10;;;-151.14;100.00;62537.16;4990198;28;20232;-85
2023/03/29 08:39:58;;;;;;;;;;;6.90;67.40;;;-151.14;100.00;62537.16;4974669;28;19934;-84
2023/03/29 08:42:54;;;;;;;;;;;6.90;67.80;;;-151.14;100.00;62537.16;5006775;28;19929;-84
2023/03/29 08:45:29;;;;;;;;;;;6.90;67.70;;;-151.14;100.00;62537.16;4990691;28;19928;-84
2023/03/29 08:48:03;;;;;;;;;;;6.80;67.30;;;-151.14;100.00;62537.16;4973765;28;19922;-85
2023/03/29 08:50:35;;;;;;;;;;;6.90;67.20;;;-151.14;100.00;62537.16;4955412;28;20237;-85
2023/03/29 08:53:05;;;;;;;;;;;6.90;67.70;;;-151.14;100.00;62537.16;4955145;28;19929;-85
2023/03/29 08:55:53;;;;;;;;;;;6.90;67.60;;;-151.14;100.00;62537.16;4970764;28;20225;-85
2023/03/29 08:58:54;;;;;;;;;;;6.90;67.10;;;-151.14;100.00;62537.16;4980701;28;19923;-85
2023/03/29 09:01:29;;;;;;;;;;;6.90;67.70;;;-151.14;100.00;62537.16;4971102;28;19928;-85
2023/03/29 09:04:03;;;;;;;;;;;6.90;67.40;;;-151.14;100.00;62537.16;4987243;28;19928;-84
2023/03/29 09:06:47;;;;;;;;;;;6.90;68.40;;;-151.14;100.00;62537.16;4986980;28;20202;-85
2023/03/29 09:09:23;;;;;;;;;;;6.90;66.90;;;-151.14;100.00;62537.16;4986409;28;19921;-84
2023/03/29 09:12:01;;;;;;;;;;;6.90;63.80;;;-151.14;100.00;62537.16;4994484;28;19922;-84
2023/03/29 09:14:45;;;;;;;;;;;6.80;63.40;;;-151.14;100.00;62537.16;4994413;28;19921;-85
2023/03/29 09:17:17;;;;;;;;;;;6.80;63.40;;;-151.14;100.00;62537.16;5010551;28;19928;-85
2023/03/29 09:19:49;;;;;;;;;;;6.70;63.80;;;-151.14;100.00;62537.16;4994400;28;20098;-85
2023/03/29 09:22:21;;;;;;;;;;;6.80;64.80;;;-151.14;100.00;62537.16;4994306;28;19927;-85
2023/03/29 09:24:55;;;;;;;;;;;6.70;66.40;;;-151.14;100.00;62537.16;4994162;28;19928;-85
2023/03/29 09:27:27;;;;;;;;;;;6.80;64.20;;;-151.14;100.00;62537.16;5010515;28;19922;-85
2023/03/29 09:30:16;;;;;;;;;;;6.70;64.00;;;-151.14;100.00;62537.16;4994322;28;20022;-85
2023/03/29 09:33:08;;;;;;;;;;;6.70;63.60;;;-151.14;100.00;62537.16;4994071;28;19928;-85
2023/03/29 09:35:54;;;;;;;;;;;6.70;64.10;;;-151.14;100.00;62537.16;4994293;28;19928;-85
2023/03/29 09:38:22;;;;;;;;;;;6.70;64.20;;;-151.14;100.00;62537.16;4994218;28;19922;-85
2023/03/29 09:40:52;;;;;;;;;;;6.70;62.60;;;-151.14;100.00;62537.16;4994143;28;19921;-85
2023/03/29 09:43:29;;;;;;;;;;;6.70;63.00;;;-151.14;100.00;62537.16;4994286;28;20110;-85
2023/03/29 09:45:58;;;;;;;;;;;6.70;63.90;;;-151.14;100.00;62537.16;5010330;28;20227;-85
2023/03/29 09:48:26;;;;;;;;;;;6.60;63.50;;;-151.14;100.00;62537.16;4993880;28;20117;-85
2023/03/29 09:50:59;;;;;;;;;;;6.60;63.60;;;-151.14;100.00;62537.16;4994037;28;19928;-85
2023/03/29 09:53:27;;;;;;;;;;;6.60;64.00;;;-151.14;100.00;62537.16;4993871;28;19921;-85
2023/03/29 09:56:14;;;;;;;;;;;6.70;64.50;;;-151.14;100.00;62537.16;4994062;28;19922;-85
2023/03/29 09:58:50;;;;;;;;;;;6.60;64.40;;;-151.14;100.00;62537.16;4994252;28;19928;-86
2023/03/29 10:01:20;;;;;;;;;;;6.60;63.60;;;-151.14;100.00;62537.16;4977834;28;19922;-85
2023/03/29 10:03:51;;;;;;;;;;;6.60;63.70;;;-151.14;100.00;62537.16;4977615;28;20113;-85
2023/03/29 10:06:22;;;;;;;;;;;6.60;63.80;;;-151.14;100.00;62537.16;4995090;28;19928;-85
2023/03/29 10:08:56;;;;;;;;;;;6.60;64.40;;;-151.14;100.00;62537.16;4977622;28;19922;-85
2023/03/29 10:11:29;;;;;;;;;;;6.50;64.10;;;-151.14;100.00;62537.16;4994051;28;20227;-85
2023/03/29 10:14:00;;;;;;;;;;;6.60;64.20;;;-151.14;100.00;62537.16;4977572;28;19922;-85
2023/03/29 10:16:29;;;;;;;;;;;6.50;64.70;;;-151.14;100.00;62537.16;5010166;28;19922;-85
2023/03/29 10:18:57;;;;;;;;;;;6.60;64.90;;;-151.14;100.00;62537.16;4993829;28;19921;-85
2023/03/29 10:21:27;;;;;;;;;;;6.60;65.00;;;-151.14;100.00;62537.16;4994945;28;19957;-85
2023/03/29 10:23:58;;;;;;;;;;;6.60;64.30;;;-151.14;100.00;62537.16;4993673;28;19962;-85
2023/03/29 10:26:28;;;;;;;;;;;6.50;64.40;;;-151.14;100.00;62537.16;4977405;28;20095;-84
2023/03/29 10:28:59;;;;;;;;;;;6.50;64.30;;;-151.14;100.00;62537.16;4994631;28;19928;-85
2023/03/29 10:31:28;;;;;;;;;;;6.50;64.70;;;-151.14;100.00;62537.16;4977361;28;19922;-85
2023/03/29 10:33:57;;;;;;;;;;;6.50;64.60;;;-151.14;100.00;62537.16;4994616;28;19928;-86
2023/03/29 10:36:27;;;;;;;;;;;6.50;62.80;;;-151.14;100.00;62537.16;4977322;28;19965;-84
2023/03/29 10:38:57;;;;;;;;;;;6.50;62.70;;;-151.14;100.00;62537.16;4977254;28;19921;-85
2023/03/29 10:41:26;;;;;;;;;;;6.50;63.00;;;-151.14;100.00;62537.16;4977260;28;19936;-84
2023/03/29 10:43:54;;;;;;;;;;;6.50;63.20;;;-151.14;100.00;62537.16;4994428;28;20236;-85
2023/03/29 10:46:23;;;;;;;;;;;6.50;63.50;;;-151.14;100.00;62537.16;4994513;28;20206;-85
2023/03/29 10:48:52;;;;;;;;;;;6.50;63.50;;;-151.14;100.00;62537.16;4976979;28;19922;-85
2023/03/29 10:51:21;;;;;;;;;;;6.50;63.90;;;-151.14;100.00;62537.16;5003106;28;19922;-85
2023/03/29 10:53:51;;;;;;;;;;;6.50;63.30;;;-151.14;100.00;62537.16;4996465;28;19969;-85
2023/03/29 10:56:34;;;;;;;;;;;6.50;63.30;;;-151.14;100.00;62537.16;5029043;28;19922;-85
2023/03/29 10:59:23;;;;;;;;;;;6.50;63.60;;;-151.14;100.00;62537.16;5012781;28;20098;-84
2023/03/29 11:01:58;;;;;;;;;;;6.50;64.00;;;-151.14;100.00;62537.16;5013902;28;19948;-85
2023/03/29 11:04:29;;;;;;;;;;;6.50;64.10;;;-151.14;100.00;62537.16;5029049;28;19921;-84
2023/03/29 11:07:09;;;;;;;;;;;6.50;63.60;;;-151.14;100.00;62537.16;5029094;28;19922;-85
2023/03/29 11:09:43;;;;;;;;;;;6.40;63.40;;;-151.14;100.00;62537.16;4995343;28;19928;-85
2023/03/29 11:12:13;;;;;;;;;;;6.50;63.00;;;-151.14;100.00;62537.16;5012753;28;20121;-85
2023/03/29 11:14:44;;;;;;;;;;;6.50;63.30;;;-151.14;100.00;62537.16;5028706;28;19928;-84
2023/03/29 11:17:20;;;;;;;;;;;6.50;64.40;;;-151.14;100.00;62537.16;4993655;28;19928;-83
2023/03/29 11:19:54;;;;;;;;;;;6.50;64.60;;;-151.14;100.00;62537.16;4975898;28;19928;-85
2023/03/29 11:22:24;;;;;;;;;;;6.60;64.80;;;-151.14;100.00;62537.16;4963232;28;20125;-85
2023/03/29 11:25:18;;;;;;;;;;;6.60;64.70;;;-151.14;100.00;62537.16;4966121;28;19922;-85
2023/03/29 11:27:51;;;;;;;;;;;6.60;64.90;;;-151.14;100.00;62537.16;4968565;28;19929;-84
2023/03/29 11:30:22;;;;;;;;;;;6.70;64.70;;;-151.14;100.00;62537.16;4972222;28;19922;-85